Αρχική σελίδα
METAR-TAF:

METAR-TAF

Αεροδρόμια :

Κέιπ Τάουν, Νότια Αφρική

γεωγραφικό πλάτος: 33-59S, γεωγραφικό μήκος: 018-36E, υψόμετρο: 42 μ

Παρών καιρός

Η αναφορά έγινε 33 λεπτά πριν, στις 12:00 UTC
Άνεμος 9 kt από Ν, μεταβλητός μεταξύ ΝA και Δ/ΝΔ
Θερμοκρασία 22°C
Υγρασία 57%
Πίεση 1018 hPa
Ορατότητα 10 χλμ και άνω
Αρκετά νέφη σε ύψος 3500 πόδια

METAR: FACT 161200Z 19009KT 130V240 9999 BKN035 22/13 Q1018 NOSIG

Χρόνος: 14:33 (12:33 UTC)

Πρόγνωση Καιρού

Η αναφορά έγινε 2 ώρες και 33 λεπτά πριν, στις 10:00 UTC
Η πρόγνωση ισχύει από τις 16 στις 12 UTC έως τις 17 στις 18 UTC
Άνεμος 10 kt από Ν/ΝΔ
Ορατότητα 10 χλμ και άνω
Διάσπαρτα νέφη σε ύψος 2500 πόδια

TAF: FACT 161000Z 1612/1718 20010KT 9999 SCT025 TX24/1612Z TN13/1704Z

Μετεωρολογικές αναφορές και προγνώσεις για περισσότερα από 4000 αεροδρόμια (δελτία METAR και TAF).

Οι διαθέσιμοι σταθμοί απεικονίζονται στο χάρτη με κίτρινες και κόκκινες κουκκίδες.

Μετακινήστε το ποντίκι πάνω από τις κουκκίδες για να δείτε το όνομα του σταθμού.

Στη συνέχεια, κάντε κλικ για να δείτε τις μετεωρολογικές αναφορές και τις προγνώσεις καιρού.

Για να αλλάξετε το χάρτη: κάντε κλικ στα πράσινα κουμπιά με τον μαύρο σταυρό για να ζουμάρετε, στο πράσινο κουμπί με την παύλα για να αφαιρέσετε το ζουμ ή στα πράσινα βέλη για να αντιπαραβάλλετε χάρτες.


METAR-TAF: